Brooke Mckenzie — WDE9826 — position and weather

sailwx.info

Track history (hours):
 
Tides and Currents Weather Stations Pressure Air Temp Water Temp Dewpoint Dewpoint Depression Visibility Wind Speed Wind Dir Waves Ship Positions

Brooke Mckenzie

Owner: Western Rivers Boat Management, Inc., Paducah, KY. More information available from US FCC via Universal Licensing System and Coast Guard Vessel Documentation Center.

Last reported at 2018-May-09 02:26 UTC. Time now 2018-May-20 17:55 UTC.
Position N 39°10' W 090°43'.
Warning: this ship's position is 11 days out of date.

Length 41 m; draft 3.3 m.

Type: Towing. MMSI: 367421740.

Date/timePositionNaut miles runAvg speedWind from/ knotsBaromVisibWave heightAir tempDewpointWater temp
2018-May-09 02:26N 39°10' W 090°43'2 3.6
2018-May-09 02:00N 39°08' W 090°42'2 3.8
2018-May-09 01:30N 39°07' W 090°41'2 3.3
2018-May-09 00:51N 39°05' W 090°42'1 3.5
2018-May-09 00:30N 39°04' W 090°43'1 2.0
2018-May-09 00:00N 39°03' W 090°43'1 2.0
2018-May-08 23:30N 39°02' W 090°42'2 3.5
2018-May-08 23:00N 39°00' W 090°41'0 0.3
2018-May-08 22:30N 39°00' W 090°41'0 0.1
2018-May-08 22:00N 39°00' W 090°41'1 3.0
2018-May-08 21:30N 38°59' W 090°40'2 3.6
2018-May-08 21:00N 38°57' W 090°40'2 3.5
2018-May-08 20:30N 38°55' W 090°39'2 3.7
2018-May-08 20:00N 38°54' W 090°38'2 3.7
2018-May-08 19:30N 38°52' W 090°37'2 3.7
2018-May-08 19:00N 38°52' W 090°34'2 3.6
2018-May-08 18:30N 38°53' W 090°32'2 3.4
2018-May-08 18:00N 38°54' W 090°31'2 3.6
2018-May-08 17:30N 38°56' W 090°30'2 3.3
2018-May-08 17:00N 38°57' W 090°29'2 3.3
2018-May-08 16:30N 38°57' W 090°27'2 3.6
2018-May-08 16:00N 38°58' W 090°24'0 0.2
2018-May-08 15:30N 38°58' W 090°24'0 0.0
2018-May-08 15:00N 38°58' W 090°24'1 1.3
2018-May-08 14:30N 38°58' W 090°23'2 4.4
2018-May-08 14:00N 38°57' W 090°21'2 4.4
2018-May-08 13:30N 38°55' W 090°19'2 4.3
2018-May-08 13:00N 38°55' W 090°16'2 3.9
2018-May-08 12:30N 38°55' W 090°13'2 4.0
2018-May-08 12:00N 38°53' W 090°11'2 4.2
2018-May-08 11:30N 38°52' W 090°09'1 1.1
2018-May-08 11:00N 38°52' W 090°09'1 2.0
2018-May-08 10:30N 38°51' W 090°07'0 0.0
2018-May-08 10:00N 38°51' W 090°07'0 0.0
2018-May-08 09:30N 38°51' W 090°07'0 0.0
2018-May-08 09:00N 38°51' W 090°07'0 0.0
2018-May-08 08:30N 38°51' W 090°07'0 0.0
2018-May-08 08:00N 38°51' W 090°07'0 0.0
2018-May-08 07:30N 38°51' W 090°07'0 0.0
2018-May-08 07:00N 38°51' W 090°07'0 0.0
2018-May-08 06:30N 38°51' W 090°07'0 0.0
2018-May-08 06:00N 38°51' W 090°07'0 0.0
2018-May-08 05:30N 38°51' W 090°07'0 0.0
2018-May-08 05:00N 38°51' W 090°07'0 0.0
2018-May-08 04:30N 38°51' W 090°07'1 1.0
2018-May-08 04:00N 38°51' W 090°07'2 3.5
2018-May-08 03:30N 38°49' W 090°07'3 5.2
2018-May-08 03:00N 38°47' W 090°08'2 4.6
2018-May-08 02:30N 38°45' W 090°09'2 3.3
2018-May-08 02:00N 38°43' W 090°10'1 2.9
2018-May-08 01:30N 38°42' W 090°11'0 0.7
2018-May-08 01:00N 38°42' W 090°11'2 3.8
2018-May-08 00:30N 38°40' W 090°11'1 1.0
2018-May-07 23:51N 38°39' W 090°11'0 0.2
2018-May-07 23:29N 38°39' W 090°11'0 0.0
2018-May-07 23:00N 38°39' W 090°11'0 0.2
2018-May-07 22:30N 38°39' W 090°11'1 2.7
2018-May-07 22:00N 38°38' W 090°11'3 1.3
2018-May-07 19:56N 38°36' W 090°12'0 0.1
2018-May-07 19:21N 38°36' W 090°12'0 0.0
2018-May-07 19:00N 38°36' W 090°12'2 4.8
2018-May-07 18:30N 38°38' W 090°11'3 6.7
2018-May-07 18:00N 38°41' W 090°11'1 2.2
2018-May-07 17:30N 38°42' W 090°11'1 1.2
2018-May-07 17:00N 38°43' W 090°10'1 2.2
2018-May-07 16:30N 38°44' W 090°10'1 2.6
2018-May-07 16:00N 38°45' W 090°09'2 3.1
2018-May-07 15:30N 38°46' W 090°08'2 3.4
2018-May-07 15:00N 38°48' W 090°07'3 6.3
2018-May-07 14:30N 38°51' W 090°07'2 4.8
2018-May-07 14:00N 38°52' W 090°09'0 0.5
2018-May-07 13:30N 38°52' W 090°09'2 4.0
2018-May-07 13:00N 38°53' W 090°12'3 6.3
2018-May-07 12:30N 38°55' W 090°15'3 6.1
2018-May-07 12:00N 38°55' W 090°19'3 6.0
2018-May-07 11:30N 38°57' W 090°22'3 6.4
2018-May-07 11:00N 38°58' W 090°26'3 5.2
2018-May-07 10:30N 38°58' W 090°29'2 4.1
2018-May-07 10:00N 38°57' W 090°32'2 4.4
2018-May-07 09:30N 38°59' W 090°34'2 4.3
2018-May-07 09:00N 39°01' W 090°35'2 4.0
2018-May-07 08:30N 39°03' W 090°35'2 3.1
2018-May-07 08:00N 39°04' W 090°35'2 4.5
2018-May-07 07:30N 39°06' W 090°36'2 4.3
2018-May-07 06:59N 39°09' W 090°37'2 4.3
2018-May-07 06:30N 39°11' W 090°36'5 3.9
2018-May-07 05:11N 39°16' W 090°37'  
2018-May-03 14:25N 39°13' W 090°36'1 3.3
2018-May-03 14:00N 39°11' W 090°36'2 3.5
2018-May-03 13:29N 39°10' W 090°37'2 3.7
2018-May-03 13:00N 39°08' W 090°37'2 3.6
2018-May-03 12:30N 39°06' W 090°36'2 3.8
2018-May-03 12:00N 39°04' W 090°35'2 3.1
2018-May-03 11:30N 39°03' W 090°35'2 3.6
2018-May-03 10:59N 39°01' W 090°35'2 3.9
2018-May-03 10:30N 38°59' W 090°34'2 4.0
2018-May-03 10:00N 38°58' W 090°32'2 3.4
2018-May-03 09:30N 38°58' W 090°30'2 3.9
2018-May-03 09:00N 38°58' W 090°28'1 2.9
2018-May-03 08:30N 38°58' W 090°26'1 2.5
2018-May-03 08:00N 38°58' W 090°24'1 2.8
2018-May-03 07:30N 38°57' W 090°23'1 3.0
2018-May-03 07:00N 38°57' W 090°21'1 2.9
2018-May-03 06:30N 38°56' W 090°19'1 2.9
2018-May-03 06:00N 38°55' W 090°18'1 2.9
2018-May-03 05:30N 38°55' W 090°16'1 2.0
2018-May-03 05:00N 38°55' W 090°14'0 0.6
2018-May-03 04:30N 38°55' W 090°14'1 2.7
2018-May-03 04:00N 38°54' W 090°13'1 2.9
2018-May-03 03:30N 38°53' W 090°11'2 3.2
2018-May-03 03:00N 38°52' W 090°10'1 1.3
2018-May-03 02:30N 38°52' W 090°09'0 0.8
2018-May-03 01:58N 38°52' W 090°09'0 0.0
2018-May-03 01:23N 38°52' W 090°08'0 0.0
2018-May-03 00:57N 38°52' W 090°08'0 0.0
2018-May-03 00:23N 38°52' W 090°08'0 0.0
2018-May-02 23:54N 38°52' W 090°08'0 0.2
2018-May-02 23:24N 38°52' W 090°08'1 3.0
2018-May-02 23:00N 38°51' W 090°07'1 2.5
2018-May-02 22:30N 38°50' W 090°07'2 3.3
2018-May-02 22:00N 38°48' W 090°07'2 3.5
2018-May-02 21:29N 38°47' W 090°08'2 2.6
2018-May-02 20:51N 38°45' W 090°09'1 4.1
2018-May-02 20:30N 38°44' W 090°10'2 3.7
2018-May-02 20:00N 38°42' W 090°11'0 0.9
2018-May-02 19:30N 38°42' W 090°11'1 2.7
2018-May-02 19:00N 38°41' W 090°11'1 2.6
2018-May-02 18:30N 38°39' W 090°11'1 2.4
2018-May-02 17:56N 38°38' W 090°11'1 2.5
2018-May-02 17:30N 38°37' W 090°11'2 2.5
2018-May-02 16:54N 38°35' W 090°12'0 0.0
2018-May-02 16:28N 38°35' W 090°12'0 0.0
2018-May-02 15:37N 38°35' W 090°12'0 0.0
2018-May-02 15:15N 38°35' W 090°12'0 0.0
2018-May-02 14:57N 38°35' W 090°12'0 0.0
2018-May-02 14:30N 38°35' W 090°12'0 0.0
2018-May-02 13:47N 38°35' W 090°12'0 0.0
2018-May-02 13:05N 38°35' W 090°12'0 0.0
2018-May-02 12:58N 38°35' W 090°12'0 0.0
2018-May-02 12:29N 38°35' W 090°12'0 0.0
2018-May-02 12:00N 38°35' W 090°12'0 0.0
2018-May-02 10:39N 38°35' W 090°12'0 0.0
2018-May-02 10:08N 38°35' W 090°12'0 0.0
2018-May-02 09:59N 38°35' W 090°12'0 0.0
2018-May-02 09:30N 38°35' W 090°12'  
Track history (hours):
 
Tides and Currents Weather Stations Pressure Air Temp Water Temp Dewpoint Dewpoint Depression Visibility Wind Speed Wind Dir Waves Ship Positions

Brooke Mckenzie

Owner: Western Rivers Boat Management, Inc., Paducah, KY. More information available from US FCC via Universal Licensing System and Coast Guard Vessel Documentation Center.

Last reported at 2018-May-09 02:26 UTC. Time now 2018-May-20 17:55 UTC.
Position N 39°10' W 090°43'.
Warning: this ship's position is 11 days out of date.

Length 41 m; draft 3.3 m.

Type: Towing. MMSI: 367421740.

Date/timePositionNaut miles runAvg speedWind from/ knotsBaromVisibWave heightAir tempDewpointWater temp
2018-May-09 02:26N 39°10' W 090°43'2 3.6
2018-May-09 02:00N 39°08' W 090°42'2 3.8
2018-May-09 01:30N 39°07' W 090°41'2 3.3
2018-May-09 00:51N 39°05' W 090°42'1 3.5
2018-May-09 00:30N 39°04' W 090°43'1 2.0
2018-May-09 00:00N 39°03' W 090°43'1 2.0
2018-May-08 23:30N 39°02' W 090°42'2 3.5
2018-May-08 23:00N 39°00' W 090°41'0 0.3
2018-May-08 22:30N 39°00' W 090°41'0 0.1
2018-May-08 22:00N 39°00' W 090°41'1 3.0
2018-May-08 21:30N 38°59' W 090°40'2 3.6
2018-May-08 21:00N 38°57' W 090°40'2 3.5
2018-May-08 20:30N 38°55' W 090°39'2 3.7
2018-May-08 20:00N 38°54' W 090°38'2 3.7
2018-May-08 19:30N 38°52' W 090°37'2 3.7
2018-May-08 19:00N 38°52' W 090°34'2 3.6
2018-May-08 18:30N 38°53' W 090°32'2 3.4
2018-May-08 18:00N 38°54' W 090°31'2 3.6
2018-May-08 17:30N 38°56' W 090°30'2 3.3
2018-May-08 17:00N 38°57' W 090°29'2 3.3
2018-May-08 16:30N 38°57' W 090°27'2 3.6
2018-May-08 16:00N 38°58' W 090°24'0 0.2
2018-May-08 15:30N 38°58' W 090°24'0 0.0
2018-May-08 15:00N 38°58' W 090°24'1 1.3
2018-May-08 14:30N 38°58' W 090°23'2 4.4
2018-May-08 14:00N 38°57' W 090°21'2 4.4
2018-May-08 13:30N 38°55' W 090°19'2 4.3
2018-May-08 13:00N 38°55' W 090°16'2 3.9
2018-May-08 12:30N 38°55' W 090°13'2 4.0
2018-May-08 12:00N 38°53' W 090°11'2 4.2
2018-May-08 11:30N 38°52' W 090°09'1 1.1
2018-May-08 11:00N 38°52' W 090°09'1 2.0
2018-May-08 10:30N 38°51' W 090°07'0 0.0
2018-May-08 10:00N 38°51' W 090°07'0 0.0
2018-May-08 09:30N 38°51' W 090°07'0 0.0
2018-May-08 09:00N 38°51' W 090°07'0 0.0
2018-May-08 08:30N 38°51' W 090°07'0 0.0
2018-May-08 08:00N 38°51' W 090°07'0 0.0
2018-May-08 07:30N 38°51' W 090°07'0 0.0
2018-May-08 07:00N 38°51' W 090°07'0 0.0
2018-May-08 06:30N 38°51' W 090°07'0 0.0
2018-May-08 06:00N 38°51' W 090°07'0 0.0
2018-May-08 05:30N 38°51' W 090°07'0 0.0
2018-May-08 05:00N 38°51' W 090°07'0 0.0
2018-May-08 04:30N 38°51' W 090°07'1 1.0
2018-May-08 04:00N 38°51' W 090°07'2 3.5
2018-May-08 03:30N 38°49' W 090°07'3 5.2
2018-May-08 03:00N 38°47' W 090°08'2 4.6
2018-May-08 02:30N 38°45' W 090°09'2 3.3
2018-May-08 02:00N 38°43' W 090°10'1 2.9
2018-May-08 01:30N 38°42' W 090°11'0 0.7
2018-May-08 01:00N 38°42' W 090°11'2 3.8
2018-May-08 00:30N 38°40' W 090°11'1 1.0
2018-May-07 23:51N 38°39' W 090°11'0 0.2
2018-May-07 23:29N 38°39' W 090°11'0 0.0
2018-May-07 23:00N 38°39' W 090°11'0 0.2
2018-May-07 22:30N 38°39' W 090°11'1 2.7
2018-May-07 22:00N 38°38' W 090°11'3 1.3
2018-May-07 19:56N 38°36' W 090°12'0 0.1
2018-May-07 19:21N 38°36' W 090°12'0 0.0
2018-May-07 19:00N 38°36' W 090°12'2 4.8
2018-May-07 18:30N 38°38' W 090°11'3 6.7
2018-May-07 18:00N 38°41' W 090°11'1 2.2
2018-May-07 17:30N 38°42' W 090°11'1 1.2
2018-May-07 17:00N 38°43' W 090°10'1 2.2
2018-May-07 16:30N 38°44' W 090°10'1 2.6
2018-May-07 16:00N 38°45' W 090°09'2 3.1
2018-May-07 15:30N 38°46' W 090°08'2 3.4
2018-May-07 15:00N 38°48' W 090°07'3 6.3
2018-May-07 14:30N 38°51' W 090°07'2 4.8
2018-May-07 14:00N 38°52' W 090°09'0 0.5
2018-May-07 13:30N 38°52' W 090°09'2 4.0
2018-May-07 13:00N 38°53' W 090°12'3 6.3
2018-May-07 12:30N 38°55' W 090°15'3 6.1
2018-May-07 12:00N 38°55' W 090°19'3 6.0
2018-May-07 11:30N 38°57' W 090°22'3 6.4
2018-May-07 11:00N 38°58' W 090°26'3 5.2
2018-May-07 10:30N 38°58' W 090°29'2 4.1
2018-May-07 10:00N 38°57' W 090°32'2 4.4
2018-May-07 09:30N 38°59' W 090°34'2 4.3
2018-May-07 09:00N 39°01' W 090°35'2 4.0
2018-May-07 08:30N 39°03' W 090°35'2 3.1
2018-May-07 08:00N 39°04' W 090°35'2 4.5
2018-May-07 07:30N 39°06' W 090°36'2 4.3
2018-May-07 06:59N 39°09' W 090°37'2 4.3
2018-May-07 06:30N 39°11' W 090°36'5 3.9
2018-May-07 05:11N 39°16' W 090°37'  
2018-May-03 14:25N 39°13' W 090°36'1 3.3
2018-May-03 14:00N 39°11' W 090°36'2 3.5
2018-May-03 13:29N 39°10' W 090°37'2 3.7
2018-May-03 13:00N 39°08' W 090°37'2 3.6
2018-May-03 12:30N 39°06' W 090°36'2 3.8
2018-May-03 12:00N 39°04' W 090°35'2 3.1
2018-May-03 11:30N 39°03' W 090°35'2 3.6
2018-May-03 10:59N 39°01' W 090°35'2 3.9
2018-May-03 10:30N 38°59' W 090°34'2 4.0
2018-May-03 10:00N 38°58' W 090°32'2 3.4
2018-May-03 09:30N 38°58' W 090°30'2 3.9
2018-May-03 09:00N 38°58' W 090°28'1 2.9
2018-May-03 08:30N 38°58' W 090°26'1 2.5
2018-May-03 08:00N 38°58' W 090°24'1 2.8
2018-May-03 07:30N 38°57' W 090°23'1 3.0
2018-May-03 07:00N 38°57' W 090°21'1 2.9
2018-May-03 06:30N 38°56' W 090°19'1 2.9
2018-May-03 06:00N 38°55' W 090°18'1 2.9
2018-May-03 05:30N 38°55' W 090°16'1 2.0
2018-May-03 05:00N 38°55' W 090°14'0 0.6
2018-May-03 04:30N 38°55' W 090°14'1 2.7
2018-May-03 04:00N 38°54' W 090°13'1 2.9
2018-May-03 03:30N 38°53' W 090°11'2 3.2
2018-May-03 03:00N 38°52' W 090°10'1 1.3
2018-May-03 02:30N 38°52' W 090°09'0 0.8
2018-May-03 01:58N 38°52' W 090°09'0 0.0
2018-May-03 01:23N 38°52' W 090°08'0 0.0
2018-May-03 00:57N 38°52' W 090°08'0 0.0
2018-May-03 00:23N 38°52' W 090°08'0 0.0
2018-May-02 23:54N 38°52' W 090°08'0 0.2
2018-May-02 23:24N 38°52' W 090°08'1 3.0
2018-May-02 23:00N 38°51' W 090°07'1 2.5
2018-May-02 22:30N 38°50' W 090°07'2 3.3
2018-May-02 22:00N 38°48' W 090°07'2 3.5
2018-May-02 21:29N 38°47' W 090°08'2 2.6
2018-May-02 20:51N 38°45' W 090°09'1 4.1
2018-May-02 20:30N 38°44' W 090°10'2 3.7
2018-May-02 20:00N 38°42' W 090°11'0 0.9
2018-May-02 19:30N 38°42' W 090°11'1 2.7
2018-May-02 19:00N 38°41' W 090°11'1 2.6
2018-May-02 18:30N 38°39' W 090°11'1 2.4
2018-May-02 17:56N 38°38' W 090°11'1 2.5
2018-May-02 17:30N 38°37' W 090°11'2 2.5
2018-May-02 16:54N 38°35' W 090°12'0 0.0
2018-May-02 16:28N 38°35' W 090°12'0 0.0
2018-May-02 15:37N 38°35' W 090°12'0 0.0
2018-May-02 15:15N 38°35' W 090°12'0 0.0
2018-May-02 14:57N 38°35' W 090°12'0 0.0
2018-May-02 14:30N 38°35' W 090°12'0 0.0
2018-May-02 13:47N 38°35' W 090°12'0 0.0
2018-May-02 13:05N 38°35' W 090°12'0 0.0
2018-May-02 12:58N 38°35' W 090°12'0 0.0
2018-May-02 12:29N 38°35' W 090°12'0 0.0
2018-May-02 12:00N 38°35' W 090°12'0 0.0
2018-May-02 10:39N 38°35' W 090°12'0 0.0
2018-May-02 10:08N 38°35' W 090°12'0 0.0
2018-May-02 09:59N 38°35' W 090°12'0 0.0
2018-May-02 09:30N 38°35' W 090°12'  

Dump ship's entire track history